Last 365 Observations

Top Stn/Summit

Daily Data | America/Los_Angeles
as of 12/1/22 11:02 PM PST
Date Daily Max Temp (°F) Time of Max Temp Daily Min Temp (°F) Time of Min Temp Temp (°F) Daily Max Wind (mph) Time of Max Wind Max Wind Dir (°) Wind Spd (mph) Dew Pt (°F) Max RH (%) Min RH (%) Max Wet Bulb Temp (°F) Min Wet Bulb Temp (°F) WetB Hrs <28F (hrs) Hrs <= 32F (hrs) Min Wind Chill (°F) Wind Chill Time MinBV Day (V)
11/30/22 20.0 0001 13.1 1925 16.7 74.2 2333 SW | 230 41.0 3.2 93 29 15.9 12.2 - - -15.6 2333 12.2
11/29/22 29.0 1404 7.6 0001 22.4 44.4 0246 WSW | 251 19.0 -3.8 89 18 22.5 7.4 - - -17.2 0001 12.2
11/28/22 19.8 0005 7.6 2359 13.0 84.6 1324 SW | 235 42.0 11.0 96 21 18.2 7.4 23.6 23.6 -17.1 2358 12.1
11/27/22 32.0 0355 19.6 2358 25.4 58.0 2357 SW | 227 29.7 -7.7 56 8 23.0 14.3 - - -4.4 2357 12.2
11/26/22 29.6 2319 20.8 1850 26.0 45.9 1819 NE | 38 22.9 0.7 88 4 25.0 16.4 - - -0.6 1819 12.2
11/25/22 36.6 1334 27.8 2336 32.4 37.5 0647 WSW | 243 19.9 5.7 48 21 29.2 22.1 22.8 10.9 11.5 2337 12.2
11/24/22 35.6 2307 25.1 0750 29.3 55.8 0720 NNE | 28 33.3 -7.0 29 9 26.6 17.9 - 20.9 4.5 0720 12.2
11/23/22 35.0 0305 25.0 2251 28.8 55.6 2200 NE | 47 32.6 -9.1 67 6 25.7 18.0 - 20.4 3.8 2200 12.2
11/22/22 34.2 1258 26.2 1858 29.6 39.1 2338 NE | 45 11.5 -0.6 65 7 27.2 19.4 - 21.6 9.8 2334 12.2
11/21/22 33.3 1447 25.4 0621 28.6 15.6 0348 WSW | 248 7.6 -15.4 22 7 24.4 17.9 - 21.1 13.6 0524 12.2
11/20/22 31.9 1347 25.2 0407 28.0 19.2 1127 SW | 218 6.4 -14.1 24 5 23.7 18.0 - - 13.2 0435 12.2
11/19/22 29.9 1831 12.0 0547 21.1 52.0 0539 NNE | 28 27.2 -18.5 33 6 21.0 8.2 - - -14.1 0546 12.2
11/18/22 25.6 0042 8.4 2041 16.3 54.1 1310 NE | 44 28.6 -1.1 94 12 18.8 7.8 - - -19.0 2053 12.2
11/17/22 35.2 1049 23.7 2355 29.6 24.8 1442 SW | 236 11.2 -1.8 54 7 26.0 18.5 - 16.4 10.7 2252 12.2
11/16/22 31.2 1601 14.6 0145 23.2 64.0 0113 NE | 39 28.7 -14.7 42 3 22.0 11.2 - - -11.5 0146 12.2
11/15/22 18.9 2325 9.6 0637 13.9 57.0 2328 NE | 46 38.0 4.2 97 24 13.9 9.4 - - -17.7 0641 12.2
11/14/22 24.0 0034 15.1 2359 21.6 35.0 1139 SW | 233 14.3 -1.7 71 23 18.6 13.4 - - 0.3 0001 12.2
11/13/22 26.7 2159 6.0 0711 11.6 69.7 1232 NE | 37 38.2 0.4 91 11 19.3 5.9 - - -25.5 0708 12.2
11/12/22 18.2 0002 10.1 2356 13.6 65.2 1450 WSW | 238 43.6 5.0 92 40 15.0 9.5 - - -16.0 0659 12.2
11/11/22 27.8 0402 17.9 2354 24.5 47.4 2244 WSW | 237 19.2 0.2 66 13 21.5 14.5 - - -4.9 2354 12.2
11/10/22 25.6 2354 6.7 0215 12.0 38.6 2217 NE | 50 22.1 5.2 93 18 18.9 6.6 - - -14.3 0932 12.2
11/9/22 14.4 1235 7.0 0634 9.8 74.5 0012 SW | 222 30.7 7.7 93 90 14.0 6.9 - - -23.7 0012 12.2
11/8/22 19.1 1146 7.8 2316 12.4 107.1 1159 SW | 217 37.9 10.6 95 90 18.7 7.6 - - -23.0 2205 12.2
11/7/22 25.4 0101 8.7 2119 19.1 91.7 0052 NE | 41 33.8 17.9 98 90 25.1 8.5 - - -15.6 2112 12.2
11/6/22 29.9 1110 23.8 2148 27.0 95.7 2042 ENE | 59 45.9 26.7 100 97 29.8 23.5 17.5 - -1.7 2146 12.2
11/5/22 35.3 0130 25.4 1926 28.7 56.8 1025 WSW | 250 33.3 16.2 99 24 28.5 22.6 23.8 22.7 5.9 1925 12.2
11/4/22 38.0 2302 22.5 0534 30.0 73.0 0101 NNE | 12 27.4 13.8 98 16 28.9 20.3 22.6 13.0 -1.4 0101 12.2
11/3/22 23.0 0059 4.1 0707 8.2 77.7 0057 N | 7 37.7 3.6 89 24 20.4 4.0 - - -26.3 0837 12.2
11/2/22 12.4 1150 8.4 0057 10.2 57.4 1420 WSW | 253 27.6 7.7 91 88 12.0 8.1 - - -18.0 2118 12.2
11/1/22 25.6 0104 9.4 2241 19.7 78.0 1134 SSW | 199 46.3 10.6 93 50 21.6 9.1 - - -17.2 2107 12.2
10/31/22 38.5 0101 25.1 0059 32.3 53.9 0023 SW | 234 24.8 8.1 52 3 28.8 21.1 20.2 9.6 4.3 0032 12.2
10/30/22 39.2 2351 27.7 0310 33.8 39.4 1246 ENE | 65 18.0 2.8 53 3 28.6 22.6 21.4 9.1 12.2 0251 12.2
10/29/22 37.8 1549 25.6 0902 30.2 33.2 2216 NNE | 33 16.1 8.5 56 29 29.6 20.6 21.2 17.4 8.7 0856 12.2
10/28/22 33.7 1409 23.2 0715 28.2 46.8 0744 SW | 232 25.7 12.0 72 39 27.4 19.8 - 19.6 2.4 0744 12.2
10/27/22 34.7 1634 23.5 0129 29.1 40.9 0018 WSW | 237 12.8 6.8 70 24 27.2 18.6 - 16.8 6.3 0018 12.2
10/26/22 30.1 1513 21.4 0719 25.2 50.8 0559 SW | 234 26.2 0.2 84 11 25.8 15.3 - - -0.2 0720 12.2
10/25/22 34.1 1250 21.7 2316 28.3 53.3 1512 WSW | 240 29.6 15.4 95 12 29.6 16.3 20.9 18.8 0.7 2218 12.2
10/24/22 38.7 1708 25.9 0147 32.4 66.9 0656 NNE | 29 30.0 5.5 68 3 31.3 17.6 15.1 13.1 7.9 0118 12.2
10/23/22 27.0 0059 10.0 2229 14.4 58.1 1945 NE | 42 26.6 7.7 94 3 19.1 9.7 - - -17.4 2053 12.2
10/22/22 31.6 0107 14.2 2305 21.5 100.3 1546 SSW | 195 38.7 20.4 100 47 26.7 13.7 23.1 23.1 -3.9 1851 12.1
10/21/22 44.0 1304 29.8 2349 36.7 84.9 0039 SW | 234 27.4 19.7 80 25 35.0 26.1 2.5 4.0 9.2 0006 12.2
10/20/22 44.7 1543 35.8 0043 39.7 25.7 1245 ENE | 66 9.4 13.1 61 22 36.0 29.0 0.0 0.0 27.8 0109 12.2
10/19/22 43.9 1419 35.9 0658 39.6 46.2 1235 ENE | 57 27.4 13.6 43 25 33.6 29.3 0.0 0.0 23.4 0746 12.2
10/18/22 43.5 1509 34.9 0534 39.4 42.9 1507 NE | 54 21.3 16.0 49 29 34.2 28.5 0.0 0.0 25.3 0057 12.2
10/17/22 46.0 1337 36.8 0059 40.3 30.4 1610 SW | 228 8.9 14.9 51 27 36.0 28.6 0.0 0.0 28.5 0121 12.2
10/16/22 47.8 1514 38.6 0101 41.8 25.4 0122 NNE | 25 11.0 11.6 67 20 39.3 29.6 0.0 0.0 27.7 0122 12.2
10/15/22 46.8 1611 38.3 0708 41.6 40.0 1248 ENE | 65 19.4 9.7 34 19 34.6 29.5 0.0 0.0 27.3 0708 12.2
10/14/22 47.3 1621 36.7 0653 41.6 52.9 1034 ENE | 58 27.8 12.1 43 14 35.6 29.9 0.0 0.0 22.0 0737 12.2
10/13/22 48.2 1658 36.8 0445 41.0 46.0 1844 NE | 48 28.9 14.8 42 24 36.1 29.9 0.0 0.0 23.2 0445 12.2
10/12/22 47.4 1540 36.7 0617 41.0 41.0 0035 NE | 44 25.6 14.6 43 22 36.1 29.8 0.0 0.0 23.4 0240 12.2
10/11/22 48.2 1334 37.8 0534 41.2 34.4 0055 NNE | 33 17.6 18.1 48 27 37.5 31.2 0.0 0.0 25.4 0055 12.2
10/10/22 49.9 1354 35.5 1605 39.9 37.5 1410 ESE | 114 11.7 22.4 69 28 38.9 31.4 0.0 0.0 22.7 1508 12.2
10/9/22 48.4 1412 39.1 2022 43.2 33.0 1547 SSW | 203 10.9 18.7 59 28 38.2 32.1 0.0 0.0 29.4 2016 12.2
10/8/22 50.8 1520 41.9 0012 44.6 32.9 1406 NNE | 30 12.1 16.6 52 23 39.3 32.3 0.0 0.0 31.9 2241 12.2
10/7/22 49.7 1456 41.0 0249 44.3 36.8 1245 ENE | 61 12.8 17.4 53 21 39.4 32.5 0.0 0.0 32.2 0829 12.2
10/6/22 54.2 1509 40.1 0635 45.3 32.3 1705 SW | 219 7.2 20.9 58 22 40.6 32.8 0.0 0.0 34.6 1857 12.2
10/5/22 51.8 1408 41.2 0414 45.4 35.2 1522 WSW | 240 13.0 21.7 57 29 40.6 32.9 0.0 0.0 33.4 2237 12.2
10/4/22 52.1 1447 40.4 0546 45.0 34.8 1524 WSW | 250 16.8 21.8 54 26 40.7 32.8 0.0 0.0 29.6 0537 12.2
10/3/22 48.8 1341 37.5 0547 43.0 39.6 2038 NE | 38 15.2 19.7 57 19 37.6 31.9 0.0 0.0 28.3 2149 12.2
10/2/22 50.1 1318 37.4 0408 42.9 39.5 1358 WSW | 252 23.6 20.3 65 22 40.1 30.6 0.0 0.0 23.7 0409 12.2
10/1/22 50.6 1241 38.5 0653 43.9 47.8 1534 SW | 219 23.9 22.8 64 28 39.1 31.9 0.0 0.0 25.9 0556 12.2
9/30/22 53.7 1443 41.9 0521 46.7 29.1 1343 SW | 228 14.1 19.6 54 16 41.7 32.5 0.0 0.0 32.1 0508 12.2
9/29/22 50.9 1444 37.6 0643 43.9 60.5 0545 WSW | 244 33.6 23.5 58 25 39.4 32.2 0.0 0.0 22.0 0652 12.2
9/28/22 50.3 1346 39.0 0059 44.1 56.2 2304 SW | 225 35.5 24.8 59 35 39.8 33.8 0.0 0.0 23.8 0059 12.2
9/27/22 52.2 1323 41.8 0041 46.4 52.8 1637 WSW | 244 29.9 28.1 69 35 41.7 35.2 0.0 0.0 29.6 0050 12.2
9/26/22 56.6 1416 44.8 0658 49.2 38.4 1623 WSW | 252 15.1 32.1 74 32 44.0 39.8 0.0 0.0 36.8 2333 12.2
9/25/22 55.9 1510 40.7 0616 47.8 37.8 1601 SW | 221 14.5 31.3 80 31 45.6 35.7 0.0 0.0 31.0 0617 12.2
9/24/22 53.1 1432 38.2 0652 45.6 34.3 0729 SSE | 167 15.5 24.1 60 30 43.0 31.1 0.0 0.0 25.4 0536 12.2
9/23/22 50.6 1503 36.9 0359 44.0 28.2 1549 WSW | 240 6.9 17.4 58 19 38.8 29.2 0.0 0.0 27.4 0105 12.2
9/22/22 48.4 1512 27.4 0130 42.2 41.3 0316 SW | 219 14.5 19.9 100 21 37.1 24.1 7.9 6.2 9.5 0130 12.2
9/21/22 34.1 1419 27.8 0445 30.6 42.4 1824 WSW | 244 29.1 29.6 100 83 33.3 27.6 0.5 16.5 9.6 0448 12.2
9/20/22 34.5 1547 28.8 0039 31.6 45.6 0307 SSW | 209 27.7 31.6 100 93 34.5 28.2 0.0 13.0 12.4 0052 12.2
9/19/22 42.1 1431 28.0 0355 33.3 51.1 0434 S | 188 30.4 29.0 100 62 37.6 27.0 5.9 13.0 8.9 0359 12.2
9/18/22 35.0 1238 26.7 0644 30.2 44.8 2201 S | 182 30.6 25.9 100 70 31.9 25.4 9.9 18.0 8.8 0636 12.2
9/17/22 41.3 1338 29.5 2337 35.2 45.2 0006 SSW | 196 33.0 22.0 100 28 34.7 27.2 2.3 4.5 11.7 2335 12.2
9/16/22 47.7 1231 35.4 0047 41.1 45.9 1642 WSW | 242 17.3 22.7 81 20 38.4 28.1 0.0 0.0 22.0 0047 12.2
9/15/22 45.0 1347 34.3 0425 40.1 44.1 1606 SW | 230 19.5 21.8 75 21 39.1 29.0 0.0 0.0 21.9 0423 12.2
9/14/22 43.0 1330 32.3 0639 37.3 46.5 1526 WSW | 243 23.2 30.7 99 46 39.4 29.9 0.0 0.0 17.6 0356 12.2
9/13/22 40.8 1354 33.8 2111 38.2 62.5 1511 W | 260 39.6 36.6 100 68 41.1 31.4 0.0 0.0 18.6 1919 12.2
9/12/22 52.9 1239 39.3 1937 44.0 42.9 1358 SSW | 213 15.5 40.0 100 59 47.6 38.8 0.0 0.0 27.6 0051 12.2
9/11/22 51.8 0803 43.3 0051 47.5 36.4 1230 NE | 56 14.0 37.8 96 42 48.9 39.5 0.0 0.0 34.3 0103 12.2
9/10/22 54.8 1149 38.8 1934 47.3 63.1 1548 E | 89 26.0 37.2 100 34 50.1 38.6 0.0 0.0 25.1 2024 12.2
9/9/22 62.9 1554 51.1 0642 55.4 48.7 0113 NE | 34 21.9 29.9 51 23 49.4 41.2 0.0 0.0 - - 12.2
9/8/22 66.0 1406 51.8 1904 57.4 46.2 0043 NE | 41 11.7 30.0 49 24 48.1 43.0 0.0 0.0 - - 12.2
9/7/22 67.4 1509 52.3 1925 59.1 48.4 1600 SE | 127 15.0 30.5 51 21 50.4 43.0 0.0 0.0 - - 12.2
9/6/22 69.5 1510 54.0 0602 60.1 47.5 1641 ESE | 122 10.2 30.1 47 19 52.0 41.7 0.0 0.0 - - 12.2
9/5/22 66.6 1700 54.5 0823 59.2 52.2 1409 NE | 46 21.6 29.5 44 18 49.5 42.2 0.0 0.0 - - 12.2
9/4/22 67.8 1311 54.4 0532 59.4 28.4 1830 SW | 233 12.0 32.4 46 23 50.5 43.4 0.0 0.0 - - 12.2
9/3/22 66.7 1245 52.6 0427 58.8 - - - - 28.9 39 24 48.6 41.9 0.0 0.0 - - 12.2
9/2/22 67.2 1510 51.9 0240 58.3 - - - - 27.5 41 22 48.3 41.6 0.0 0.0 - - 12.2
9/1/22 66.2 1444 53.6 2202 54.9 - - - - 30.3 43 23 47.8 43.1 0.0 0.0 - - 12.2
Max 69.5 - 54.5 - 60.1 107.1 - - 46.3 40.0 100 97 52.0 43.4 23.8 23.6 36.8 - 12.2
Avg - - - - 34.9 - - - 23.4 14.9 - - - - - 5.5 - - -
Min 12.4 - 4.1 - 8.2 15.6 - - 6.4 -18.5 22 3 12.0 4.0 0.0 0.0 -26.3 - 12.1
Total - - - - - - - - - - - - - - - 373.4 - - -